| time (UTC) | temp C | wind direction | speed KPH | gust KPH | rain 1hr cm | rain 24hr cm | rain mn cm | humidity % | barometer mb |
| 20260507151606 | -17 | 0.0 | 0.0 | 0.00 | 0.00 | 0.00 | 1014.2 | ||
| 20260507150559 | -17 | 0.0 | 0.0 | 0.00 | 0.00 | 0.00 | 1014.3 | ||
| 20260507145552 | 16 | 225 | 9.7 | 17.7 | 0.00 | 0.00 | 0.00 | 24 | 1014.4 |
| 20260507144544 | 16 | 225 | 6.4 | 9.7 | 0.00 | 0.00 | 0.00 | 29 | 1014.2 |
| 20260507143617 | 16 | 323 | 8.0 | 14.5 | 0.00 | 0.00 | 0.00 | 28 | 1014.0 |
| 20260507142550 | 16 | 186 | 8.0 | 19.3 | 0.00 | 0.00 | 0.00 | 29 | 1013.9 |
| 20260507141522 | 16 | 210 | 4.8 | 12.9 | 0.00 | 0.00 | 0.00 | 30 | 1014.2 |
| 20260507140615 | 15 | 225 | 14.5 | 27.4 | 0.00 | 0.00 | 0.00 | 30 | 1013.9 |
| 20260507135648 | 15 | 183 | 9.7 | 17.7 | 0.00 | 0.00 | 0.00 | 31 | 1013.8 |
| 20260507134601 | 15 | 200 | 4.8 | 9.7 | 0.00 | 0.00 | 0.00 | 31 | 1013.9 |
| 20260507133554 | 15 | 216 | 4.8 | 11.3 | 0.00 | 0.00 | 0.00 | 32 | 1013.8 |
| 20260507132547 | 15 | 185 | 6.4 | 12.9 | 0.00 | 0.00 | 0.00 | 32 | 1014.2 |
| 20260507131539 | 15 | 310 | 4.8 | 12.9 | 0.00 | 0.00 | 0.00 | 33 | 1014.0 |
| 20260507130552 | 15 | 180 | 9.7 | 16.1 | 0.00 | 0.00 | 0.00 | 33 | 1013.9 |
| 20260507125525 | -17 | 0.0 | 0.0 | 0.00 | 0.00 | 0.00 | 1014.0 | ||
| 20260507124518 | 16 | 225 | 8.0 | 19.3 | 0.00 | 0.00 | 0.00 | 31 | 1013.7 |
| 20260507123611 | 16 | 211 | 4.8 | 9.7 | 0.00 | 0.00 | 0.00 | 31 | 1013.3 |
| 20260507122603 | 16 | 225 | 4.8 | 9.7 | 0.00 | 0.00 | 0.00 | 31 | 1012.8 |
| 20260507121557 | -17 | 0.0 | 0.0 | 0.00 | 0.00 | 0.00 | 1012.2 | ||
| 20260507120549 | -17 | 0.0 | 0.0 | 0.00 | 0.00 | 0.00 | 1012.7 | ||
| 20260507115542 | -17 | 0.0 | 0.0 | 0.00 | 0.00 | 0.00 | 1012.7 | ||
| 20260507114535 | 16 | 225 | 4.8 | 8.0 | 0.00 | 0.00 | 0.00 | 31 | 1013.8 |
| 20260507113527 | 16 | 225 | 8.0 | 11.3 | 0.00 | 0.00 | 0.00 | 31 | 1013.1 |
| 20260507112540 | -17 | 0.0 | 0.0 | 0.00 | 0.00 | 0.00 | 1012.8 | ||
| 20260507111633 | 16 | 135 | 6.4 | 11.3 | 0.00 | 0.00 | 0.00 | 34 | 1011.8 |
| 20260507110605 | 16 | 202 | 9.7 | 20.9 | 0.00 | 0.00 | 0.00 | 35 | 1011.0 |
| 20260507105558 | 16 | 180 | 9.7 | 12.9 | 0.00 | 0.00 | 0.00 | 38 | 1010.2 |
| 20260507104551 | 16 | 180 | 6.4 | 12.9 | 0.00 | 0.00 | 0.00 | 41 | 1009.8 |
| 20260507103544 | 16 | 225 | 9.7 | 17.7 | 0.00 | 0.00 | 0.00 | 43 | 1010.3 |
| 20260507102537 | 16 | 225 | 4.8 | 8.0 | 0.00 | 0.00 | 0.00 | 44 | 1010.3 |
| 20260507101530 | 16 | 225 | 8.0 | 14.5 | 0.00 | 0.00 | 0.00 | 41 | 1009.9 |
| 20260507100542 | 16 | 225 | 9.7 | 17.7 | 0.00 | 0.00 | 0.00 | 43 | 1009.6 |
| 20260507095636 | 16 | 233 | 8.0 | 16.1 | 0.00 | 0.00 | 0.00 | 45 | 1010.2 |
| 20260507094608 | 16 | 225 | 8.0 | 12.9 | 0.00 | 0.00 | 0.00 | 49 | 1009.6 |
| 20260507093601 | 17 | 225 | 8.0 | 14.5 | 0.00 | 0.00 | 0.00 | 41 | 1010.6 |
| 20260507092554 | 17 | 225 | 8.0 | 17.7 | 0.00 | 0.00 | 0.00 | 39 | 1010.5 |
| 20260507091547 | 17 | 225 | 6.4 | 11.3 | 0.00 | 0.00 | 0.00 | 40 | 1009.9 |
| 20260507090539 | 17 | 225 | 9.7 | 19.3 | 0.00 | 0.00 | 0.00 | 41 | 1009.9 |
| 20260507085532 | 17 | 225 | 11.3 | 19.3 | 0.00 | 0.00 | 0.00 | 42 | 1009.1 |
| 20260507084525 | 17 | 225 | 6.4 | 12.9 | 0.00 | 0.00 | 0.00 | 43 | 1009.8 |
| 20260507083517 | 17 | 225 | 6.4 | 14.5 | 0.00 | 0.00 | 0.00 | 43 | 1009.8 |
| 20260507082610 | -17 | 0.0 | 0.0 | 0.00 | 0.00 | 0.00 | 1009.9 | ||
| 20260507081623 | -17 | 0.0 | 0.0 | 0.00 | 0.00 | 0.00 | 1009.9 | ||
| 20260507080556 | 18 | 225 | 9.7 | 16.1 | 0.00 | 0.00 | 0.00 | 43 | 1009.8 |
| 20260507075549 | 18 | 270 | 6.4 | 17.7 | 0.00 | 0.00 | 0.00 | 43 | 1009.9 |
| 20260507074541 | 18 | 180 | 12.9 | 17.7 | 0.00 | 0.00 | 0.00 | 42 | 1010.0 |
| 20260507073534 | 19 | 225 | 8.0 | 16.1 | 0.00 | 0.00 | 0.00 | 42 | 1009.9 |
| 20260507072527 | 19 | 225 | 11.3 | 19.3 | 0.00 | 0.00 | 0.00 | 44 | 1009.6 |
| 20260507071519 | 19 | 225 | 11.3 | 22.5 | 0.00 | 0.00 | 0.00 | 44 | 1009.6 |
| 20260507070613 | 19 | 273 | 8.0 | 12.9 | 0.00 | 0.00 | 0.00 | 45 | 1009.4 |
| 20260507065605 | 19 | 180 | 4.8 | 11.3 | 0.00 | 0.00 | 0.00 | 46 | 1009.5 |
| 20260507064558 | -17 | 0.0 | 0.0 | 0.00 | 0.00 | 0.00 | 1009.5 | ||
| 20260507063551 | -17 | 0.0 | 0.0 | 0.00 | 0.00 | 0.00 | 1009.3 | ||
| 20260507062544 | -17 | 0.0 | 0.0 | 0.00 | 0.00 | 0.00 | 1008.9 | ||
| 20260507061536 | 20 | 135 | 12.9 | 32.2 | 0.00 | 0.00 | 0.00 | 50 | 1008.9 |
| 20260507060529 | 20 | 135 | 12.9 | 32.2 | 0.00 | 0.00 | 0.00 | 50 | 1009.0 |
| 20260507055522 | 20 | 180 | 12.9 | 16.1 | 0.00 | 0.00 | 0.00 | 48 | 1009.0 |
| 20260507054615 | 20 | 180 | 12.9 | 20.9 | 0.00 | 0.00 | 0.00 | 48 | 1008.8 |
| 20260507053608 | -17 | 0.0 | 0.0 | 0.00 | 0.00 | 0.00 | 1008.7 | ||
| 20260507052600 | -17 | 0.0 | 0.0 | 0.00 | 0.00 | 0.00 | 1008.7 | ||
| 20260507051553 | -17 | 0.0 | 0.0 | 0.00 | 0.00 | 0.00 | 1008.7 | ||
| 20260507050546 | -17 | 0.0 | 0.0 | 0.00 | 0.00 | 0.00 | 1008.4 | ||
| 20260507045538 | 21 | 135 | 6.4 | 16.1 | 0.00 | 0.00 | 0.00 | 52 | 1008.1 |
| 20260507044531 | 21 | 181 | 8.0 | 16.1 | 0.00 | 0.00 | 0.00 | 52 | 1008.0 |
| 20260507043524 | -17 | 0.0 | 0.0 | 0.00 | 0.00 | 0.00 | 1008.0 | ||
| 20260507042637 | -17 | 0.0 | 0.0 | 0.00 | 0.00 | 0.00 | 1008.1 | ||
| 20260507041609 | -17 | 0.0 | 0.0 | 0.00 | 0.00 | 0.00 | 1008.0 | ||
| 20260507040602 | 21 | 225 | 8.0 | 17.7 | 0.00 | 0.00 | 0.00 | 63 | 1007.9 |
| 20260507035555 | 21 | 225 | 8.0 | 17.7 | 0.00 | 0.00 | 0.00 | 63 | 1007.8 |
| 20260507034548 | -17 | 0.0 | 0.0 | 0.00 | 0.00 | 0.00 | 1007.8 | ||
| 20260507033541 | -17 | 0.0 | 0.0 | 0.00 | 0.00 | 0.00 | 1007.5 | ||
| 20260507032533 | -17 | 0.0 | 0.0 | 0.00 | 0.00 | 0.00 | 1007.1 | ||
| 20260507031526 | 22 | 225 | 4.8 | 8.0 | 0.00 | 0.00 | 0.00 | 76 | 1006.8 |
| 20260507030523 | 22 | 225 | 6.4 | 11.3 | 0.00 | 0.00 | 0.00 | 78 | 1007.1 |
| 20260507025632 | -17 | 0.0 | 0.0 | 0.00 | 0.00 | 0.00 | 1006.7 | ||
| 20260507024605 | -17 | 0.0 | 0.0 | 0.00 | 0.00 | 0.00 | 1006.8 | ||
| 20260507023558 | -17 | 0.0 | 0.0 | 0.00 | 0.00 | 0.00 | 1006.8 | ||
| 20260507022550 | -17 | 0.0 | 0.0 | 0.00 | 0.00 | 0.00 | 1006.7 | ||
| 20260507021543 | -17 | 0.0 | 0.0 | 0.00 | 0.00 | 0.00 | 1007.0 | ||
| 20260507020535 | -17 | 0.0 | 0.0 | 0.00 | 0.00 | 0.00 | 1006.9 | ||
| 20260507015523 | -17 | 0.0 | 0.0 | 0.00 | 0.00 | 0.00 | 1006.9 | ||
| 20260507014611 | -17 | 0.0 | 0.0 | 0.00 | 0.00 | 0.00 | 1006.9 | ||
| 20260507013559 | 22 | 225 | 3.2 | 3.2 | 0.00 | 0.00 | 0.00 | 70 | 1006.8 |
| 20260507012548 | -17 | 0.0 | 0.0 | 0.00 | 0.00 | 0.00 | 1006.5 | ||
| 20260507011535 | -17 | 0.0 | 0.0 | 0.00 | 0.00 | 0.00 | 1006.5 | ||
| 20260507010523 | -17 | 0.0 | 0.0 | 0.00 | 0.00 | 0.00 | 1006.4 | ||
| 20260507005632 | -17 | 0.0 | 0.0 | 0.00 | 0.00 | 0.00 | 1006.2 | ||
| 20260507004559 | -17 | 0.0 | 0.0 | 0.00 | 0.00 | 0.00 | 1006.1 | ||
| 20260507003547 | -17 | 0.0 | 0.0 | 0.00 | 0.00 | 0.00 | 1006.0 | ||
| 20260507002535 | -17 | 0.0 | 0.0 | 0.00 | 0.00 | 0.00 | 1005.9 | ||
| 20260507001523 | -17 | 0.0 | 0.0 | 0.00 | 0.00 | 0.00 | 1005.8 | ||
| 20260507000611 | -17 | 0.0 | 0.0 | 0.00 | 0.00 | 0.00 | 1005.6 | ||
| 20260506235559 | 23 | 225 | 1.6 | 3.2 | 0.00 | 0.00 | 0.00 | 66 | 1005.4 |
| 20260506234548 | 23 | 225 | 1.6 | 3.2 | 0.00 | 0.00 | 0.00 | 66 | 1005.3 |
| 20260506233555 | -17 | 0.0 | 0.0 | 0.00 | 0.00 | 0.00 | 1005.3 | ||
| 20260506232523 | -17 | 0.0 | 0.0 | 0.00 | 0.00 | 0.00 | 1005.2 | ||
| 20260506231612 | 25 | 225 | 3.2 | 4.8 | 0.00 | 0.00 | 0.00 | 62 | 1004.8 |
| 20260506230559 | 25 | 225 | 1.6 | 4.8 | 0.00 | 0.00 | 0.00 | 61 | 1004.6 |
| 20260506225627 | 25 | 225 | 1.6 | 6.4 | 0.00 | 0.00 | 0.00 | 61 | 1004.1 |
| 20260506224535 | -17 | 0.0 | 0.0 | 0.00 | 0.00 | 0.00 | 1004.0 | ||
| 20260506223543 | 26 | 315 | 6.4 | 8.0 | 0.00 | 0.00 | 0.00 | 59 | 1003.7 |
| 20260506222611 | 26 | 315 | 6.4 | 8.0 | 0.00 | 0.00 | 0.00 | 59 | 1003.4 |
| 20260506221559 | -17 | 0.0 | 0.0 | 0.00 | 0.00 | 0.00 | 1003.4 | ||
| 20260506220608 | 27 | 270 | 4.8 | 8.0 | 0.00 | 0.00 | 0.00 | 54 | 1003.1 |
| 20260506215535 | 27 | 289 | 6.4 | 9.7 | 0.00 | 0.00 | 0.00 | 54 | 1002.9 |
| 20260506214523 | 27 | 0 | 4.8 | 9.7 | 0.00 | 0.00 | 0.00 | 52 | 1003.0 |
| 20260506213612 | 28 | 293 | 3.2 | 9.7 | 0.00 | 0.00 | 0.00 | 52 | 1002.8 |
| 20260506212559 | -17 | 0.0 | 0.0 | 0.00 | 0.00 | 0.00 | 1002.7 | ||
| 20260506211547 | -17 | 0.0 | 0.0 | 0.00 | 0.00 | 0.00 | 1002.7 | ||
| 20260506210536 | 31 | 225 | 4.8 | 8.0 | 0.00 | 0.00 | 0.00 | 40 | 1002.6 |
| 20260506205523 | -17 | 0.0 | 0.0 | 0.00 | 0.00 | 0.00 | 1002.8 | ||
| 20260506204611 | -17 | 0.0 | 0.0 | 0.00 | 0.00 | 0.00 | 1002.9 | ||
| 20260506203559 | -17 | 0.0 | 0.0 | 0.00 | 0.00 | 0.00 | 1003.0 | ||
| 20260506202548 | -17 | 0.0 | 0.0 | 0.00 | 0.00 | 0.00 | 1003.1 | ||
| 20260506201535 | 31 | 315 | 3.2 | 6.4 | 0.00 | 0.00 | 0.00 | 40 | 1003.2 |
| 20260506200524 | 31 | 315 | 3.2 | 8.0 | 0.00 | 0.00 | 0.00 | 42 | 1003.3 |
| 20260506195612 | -17 | 0.0 | 0.0 | 0.00 | 0.00 | 0.00 | 1003.3 | ||
| 20260506194559 | 31 | 315 | 4.8 | 6.4 | 0.00 | 0.00 | 0.00 | 41 | 1003.4 |
| 20260506193547 | 31 | 315 | 4.8 | 6.4 | 0.00 | 0.00 | 0.00 | 41 | 1003.5 |
| 20260506192535 | 31 | 315 | 3.2 | 4.8 | 0.00 | 0.00 | 0.00 | 40 | 1003.6 |
| 20260506191522 | 31 | 315 | 3.2 | 4.8 | 0.00 | 0.00 | 0.00 | 40 | 1003.8 |
| 20260506190611 | 31 | 315 | 6.4 | 11.3 | 0.00 | 0.00 | 0.00 | 40 | 1003.7 |
| 20260506185559 | 31 | 315 | 4.8 | 6.4 | 0.00 | 0.00 | 0.00 | 41 | 1004.0 |
| 20260506184548 | -17 | 0.0 | 0.0 | 0.00 | 0.00 | 0.00 | 1004.0 | ||
| 20260506183535 | 31 | 270 | 3.2 | 3.2 | 0.00 | 0.00 | 0.00 | 42 | 1004.2 |
| 20260506182523 | 32 | 350 | 6.4 | 11.3 | 0.00 | 0.00 | 0.00 | 41 | 1004.1 |
| 20260506181612 | -17 | 0.0 | 0.0 | 0.00 | 0.00 | 0.00 | 1004.3 | ||
| 20260506180559 | 31 | 315 | 4.8 | 6.4 | 0.00 | 0.00 | 0.00 | 44 | 1004.4 |
| 20260506175547 | 31 | 315 | 4.8 | 9.7 | 0.00 | 0.00 | 0.00 | 44 | 1004.6 |
| 20260506174556 | 31 | 238 | 6.4 | 12.9 | 0.00 | 0.00 | 0.00 | 44 | 1004.8 |
| 20260506173523 | 31 | 315 | 6.4 | 8.0 | 0.00 | 0.00 | 0.00 | 44 | 1005.0 |
| 20260506172612 | 31 | 225 | 6.4 | 16.1 | 0.00 | 0.00 | 0.00 | 44 | 1005.0 |
| 20260506171559 | 31 | 270 | 6.4 | 17.7 | 0.00 | 0.00 | 0.00 | 46 | 1005.4 |
| 20260506170548 | 31 | 294 | 6.4 | 12.9 | 0.00 | 0.00 | 0.00 | 48 | 1005.5 |
| 20260506165535 | 30 | 298 | 4.8 | 8.0 | 0.00 | 0.00 | 0.00 | 50 | 1005.7 |
| 20260506164523 | 30 | 353 | 8.0 | 16.1 | 0.00 | 0.00 | 0.00 | 50 | 1006.1 |
| 20260506163632 | 30 | 317 | 4.8 | 12.9 | 0.00 | 0.00 | 0.00 | 50 | 1006.2 |
| 20260506162559 | 30 | 310 | 6.4 | 24.1 | 0.00 | 0.00 | 0.00 | 50 | 1006.5 |
| 20260506161547 | 30 | 286 | 8.0 | 17.7 | 0.00 | 0.00 | 0.00 | 50 | 1006.8 |
| 20260506160535 | 30 | 289 | 6.4 | 12.9 | 0.00 | 0.00 | 0.00 | 48 | 1007.0 |
| 20260506155603 | 29 | 289 | 6.4 | 16.1 | 0.00 | 0.00 | 0.00 | 51 | 1007.5 |
| 20260506154631 | 29 | 272 | 6.4 | 12.9 | 0.00 | 0.00 | 0.00 | 52 | 1007.7 |
| 20260506153559 | 29 | 303 | 6.4 | 11.3 | 0.00 | 0.00 | 0.00 | 54 | 1008.1 |
| 20260506152547 | 28 | 307 | 6.4 | 17.7 | 0.00 | 0.00 | 0.00 | 58 | 1008.4 |